createdAt,value
2019-01-11T00:01:20.544Z,21.90
2019-01-11T00:03:47.205Z,22.90
2019-01-11T00:06:13.664Z,19.27
2019-01-11T00:08:40.223Z,22.43
2019-01-11T00:11:06.985Z,23.63
2019-01-11T00:13:33.489Z,23.20
2019-01-11T00:16:00.206Z,22.17
2019-01-11T00:18:28.013Z,21.50
2019-01-11T00:20:55.283Z,21.67
2019-01-11T00:23:22.210Z,22.17
2019-01-11T00:25:48.719Z,21.33
2019-01-11T00:28:16.096Z,21.37
2019-01-11T00:30:43.015Z,20.27
2019-01-11T00:33:09.408Z,22.40
2019-01-11T00:35:35.841Z,22.10
2019-01-11T00:38:02.266Z,20.77
2019-01-11T00:40:29.178Z,22.40
2019-01-11T00:42:57.570Z,22.73
2019-01-11T00:45:24.033Z,22.27
2019-01-11T00:47:50.554Z,23.30
2019-01-11T00:50:17.001Z,22.70
2019-01-11T00:52:43.444Z,22.60
2019-01-11T00:55:10.068Z,23.40
2019-01-11T00:57:36.482Z,23.47
2019-01-11T01:00:18.349Z,22.93
2019-01-11T01:02:44.927Z,23.07
2019-01-11T01:05:11.680Z,24.57
2019-01-11T01:07:38.381Z,24.50
2019-01-11T01:10:05.682Z,23.67
2019-01-11T01:12:32.343Z,24.37
2019-01-11T01:14:58.758Z,25.37
2019-01-11T01:17:25.420Z,24.57
2019-01-11T01:19:52.040Z,26.70
2019-01-11T01:22:18.577Z,25.70
2019-01-11T01:24:45.349Z,26.47
2019-01-11T01:27:12.855Z,25.53
2019-01-11T01:29:39.344Z,27.60
2019-01-11T01:32:05.799Z,29.83
2019-01-11T01:34:32.265Z,28.00
2019-01-11T01:36:59.832Z,27.90
2019-01-11T01:39:26.256Z,27.73
2019-01-11T01:41:52.683Z,28.57
2019-01-11T01:44:19.125Z,28.80
2019-01-11T01:46:45.792Z,26.67
2019-01-11T01:49:12.301Z,27.27
2019-01-11T01:51:38.861Z,27.93
2019-01-11T01:54:05.353Z,29.50
2019-01-11T01:56:31.916Z,27.47
2019-01-11T01:58:58.298Z,31.63
2019-01-11T02:01:24.771Z,29.63
2019-01-11T02:03:51.261Z,29.10
2019-01-11T02:06:17.713Z,26.40
2019-01-11T02:08:44.211Z,28.97
2019-01-11T02:11:10.689Z,28.67
2019-01-11T02:13:37.229Z,27.27
2019-01-11T02:16:03.691Z,27.30
2019-01-11T02:18:30.091Z,28.30
2019-01-11T02:20:56.850Z,30.10
2019-01-11T02:23:23.356Z,29.80
2019-01-11T02:25:49.826Z,29.47
2019-01-11T02:28:16.345Z,30.00
2019-01-11T02:30:42.812Z,28.50
2019-01-11T02:33:09.213Z,27.43
2019-01-11T02:35:35.647Z,28.60
2019-01-11T02:38:02.085Z,29.67
2019-01-11T02:40:28.785Z,28.90
2019-01-11T02:42:55.247Z,30.30
2019-01-11T02:45:21.731Z,29.93
2019-01-11T02:47:48.234Z,28.13
2019-01-11T02:50:14.754Z,28.90
2019-01-11T02:52:42.030Z,31.10
2019-01-11T02:55:09.470Z,31.43
2019-01-11T02:57:37.139Z,29.40
2019-01-11T03:00:13.128Z,28.77
2019-01-11T03:02:39.863Z,27.40
2019-01-11T03:05:06.658Z,28.00
2019-01-11T03:07:34.395Z,26.37
2019-01-11T03:10:00.975Z,27.10
2019-01-11T03:12:27.412Z,28.20
2019-01-11T03:14:53.839Z,28.17
2019-01-11T03:17:20.430Z,27.23
2019-01-11T03:19:47.833Z,26.23
2019-01-11T03:22:14.568Z,26.97
2019-01-11T03:24:41.284Z,27.77
2019-01-11T03:27:07.720Z,28.50
2019-01-11T03:29:34.786Z,25.87
2019-01-11T03:32:02.227Z,25.13
2019-01-11T03:34:28.694Z,25.50
2019-01-11T03:36:55.106Z,28.57
2019-01-11T03:39:21.663Z,27.77
2019-01-11T03:41:49.991Z,26.60
2019-01-11T03:44:16.480Z,26.17
2019-01-11T03:46:42.871Z,26.50
2019-01-11T03:49:09.314Z,26.60
2019-01-11T03:51:35.790Z,26.07
2019-01-11T03:54:02.375Z,25.50
2019-01-11T03:56:28.839Z,26.77
2019-01-11T03:58:55.261Z,24.17
2019-01-11T04:01:22.003Z,25.67
2019-01-11T04:03:48.521Z,23.90
2019-01-11T04:06:15.102Z,23.47
2019-01-11T04:08:41.494Z,24.53
2019-01-11T04:11:08.258Z,22.13
2019-01-11T04:13:34.680Z,26.30
2019-01-11T04:16:01.131Z,21.97
2019-01-11T04:18:29.441Z,23.93
2019-01-11T04:20:56.261Z,22.07
2019-01-11T04:23:22.668Z,23.70
2019-01-11T04:25:49.141Z,23.67
2019-01-11T04:28:15.579Z,22.87
2019-01-11T04:30:41.993Z,25.60
2019-01-11T04:33:08.407Z,23.13
2019-01-11T04:35:35.167Z,24.13
2019-01-11T04:38:01.577Z,22.57
2019-01-11T04:40:34.106Z,19.17
2019-01-11T04:42:56.559Z,24.77
2019-01-11T04:45:23.066Z,22.97
2019-01-11T04:47:50.471Z,24.70
2019-01-11T04:50:17.069Z,22.60
2019-01-11T04:52:44.218Z,22.40
2019-01-11T04:55:11.289Z,22.27
2019-01-11T04:57:37.830Z,25.73
2019-01-11T05:00:10.927Z,24.80
2019-01-11T05:02:37.402Z,25.63
2019-01-11T05:05:05.037Z,26.37
2019-01-11T05:07:31.519Z,26.47
2019-01-11T05:09:58.187Z,25.83
2019-01-11T05:12:24.665Z,24.03
2019-01-11T05:14:51.095Z,23.50
2019-01-11T05:17:17.527Z,21.00
2019-01-11T05:19:43.961Z,23.13
2019-01-11T05:22:10.662Z,22.40
2019-01-11T05:24:37.184Z,24.57
2019-01-11T05:27:03.681Z,26.80
2019-01-11T05:29:30.088Z,24.40
2019-01-11T05:31:56.543Z,22.53
2019-01-11T05:34:22.961Z,24.57
2019-01-11T05:36:49.430Z,24.20
2019-01-11T05:39:16.022Z,23.57
2019-01-11T05:41:42.581Z,24.50
2019-01-11T05:44:09.024Z,26.00
2019-01-11T05:46:35.436Z,25.83
2019-01-11T05:49:01.878Z,26.13
2019-01-11T05:51:28.322Z,26.47
2019-01-11T05:53:54.740Z,24.00
2019-01-11T05:56:21.191Z,26.57
2019-01-11T05:58:49.665Z,24.17
2019-01-11T06:01:16.205Z,24.87
2019-01-11T06:03:42.882Z,27.27
2019-01-11T06:06:09.583Z,25.43
2019-01-11T06:08:36.365Z,27.60
2019-01-11T06:11:03.059Z,24.57
2019-01-11T06:13:29.487Z,23.67
2019-01-11T06:15:55.928Z,24.67
2019-01-11T06:18:22.687Z,24.80
2019-01-11T06:20:49.852Z,24.87
2019-01-11T06:23:16.474Z,27.80
2019-01-11T06:25:42.887Z,24.80
2019-01-11T06:28:09.357Z,27.13
2019-01-11T06:30:35.766Z,27.90
2019-01-11T06:33:02.556Z,26.77
2019-01-11T06:35:29.024Z,27.03
2019-01-11T06:37:56.393Z,26.53
2019-01-11T06:40:22.959Z,28.37
2019-01-11T06:42:49.460Z,27.40
2019-01-11T06:45:16.148Z,26.27
2019-01-11T06:47:42.760Z,25.40
2019-01-11T06:50:15.611Z,28.13
2019-01-11T06:52:42.162Z,29.40
2019-01-11T06:55:10.504Z,28.20
2019-01-11T06:57:37.012Z,26.73
2019-01-11T07:00:07.186Z,26.93
2019-01-11T07:02:33.637Z,30.17
2019-01-11T07:05:00.050Z,26.67
2019-01-11T07:07:26.744Z,26.73
2019-01-11T07:09:53.110Z,27.70
2019-01-11T07:12:20.673Z,25.37
2019-01-11T07:14:47.230Z,26.03
2019-01-11T07:17:13.692Z,27.23
2019-01-11T07:19:40.177Z,28.60
2019-01-11T07:22:06.650Z,26.00
2019-01-11T07:24:33.344Z,27.40
2019-01-11T07:26:59.903Z,28.47
2019-01-11T07:29:26.335Z,29.00
2019-01-11T07:31:53.275Z,27.77
2019-01-11T07:34:19.618Z,27.93
2019-01-11T07:36:46.131Z,27.90
2019-01-11T07:39:14.589Z,28.73
2019-01-11T07:41:41.051Z,26.80
2019-01-11T07:44:07.514Z,27.53
2019-01-11T07:46:33.904Z,28.07
2019-01-11T07:49:00.470Z,30.47
2019-01-11T07:51:26.897Z,27.70
2019-01-11T07:53:53.393Z,27.07
2019-01-11T07:56:19.868Z,25.80
2019-01-11T07:58:46.281Z,29.83
2019-01-11T08:01:12.971Z,28.97
2019-01-11T08:03:39.471Z,28.13
2019-01-11T08:06:05.918Z,29.17
2019-01-11T08:08:32.350Z,30.30
2019-01-11T08:10:58.767Z,27.67
2019-01-11T08:13:25.291Z,26.90
2019-01-11T08:15:51.729Z,27.97
2019-01-11T08:18:18.283Z,31.00
2019-01-11T08:20:44.820Z,27.97
2019-01-11T08:23:11.331Z,29.37
2019-01-11T08:25:37.796Z,33.70
2019-01-11T08:28:04.393Z,29.30
2019-01-11T08:30:31.115Z,29.43
2019-01-11T08:32:57.587Z,29.20
2019-01-11T08:35:24.152Z,30.00
2019-01-11T08:37:50.643Z,31.30
2019-01-11T08:40:17.121Z,29.27
2019-01-11T08:42:43.537Z,30.93
2019-01-11T08:45:12.015Z,30.23
2019-01-11T08:47:38.474Z,29.40
2019-01-11T08:50:14.858Z,30.63
2019-01-11T08:52:41.446Z,30.50
2019-01-11T08:55:08.145Z,31.50
2019-01-11T08:57:34.634Z,28.40
2019-01-11T09:00:01.175Z,32.87
2019-01-11T09:02:28.060Z,31.27
2019-01-11T09:04:54.566Z,30.77
2019-01-11T09:07:20.977Z,30.93
2019-01-11T09:09:48.261Z,30.93
2019-01-11T09:12:14.712Z,30.53
2019-01-11T09:14:47.732Z,31.57
2019-01-11T09:17:14.622Z,30.90
2019-01-11T09:19:41.038Z,27.27
2019-01-11T09:22:07.481Z,33.63
2019-01-11T09:24:34.087Z,31.80
2019-01-11T09:27:01.567Z,31.23
2019-01-11T09:29:28.020Z,30.23
2019-01-11T09:31:54.486Z,30.33
2019-01-11T09:34:20.995Z,28.80
2019-01-11T09:36:47.448Z,29.83
2019-01-11T09:39:14.018Z,28.30
2019-01-11T09:41:40.503Z,28.80
2019-01-11T09:44:07.916Z,26.80
2019-01-11T09:46:34.414Z,26.87
2019-01-11T09:49:01.095Z,26.17
2019-01-11T09:51:27.528Z,25.23
2019-01-11T09:53:53.950Z,27.00
2019-01-11T09:56:20.660Z,25.07
2019-01-11T09:58:47.145Z,24.30
2019-01-11T10:01:14.526Z,24.20
2019-01-11T10:03:41.147Z,23.67
2019-01-11T10:06:07.636Z,24.47
2019-01-11T10:08:34.090Z,23.23
2019-01-11T10:11:00.562Z,25.37
2019-01-11T10:13:27.058Z,24.03
2019-01-11T10:15:53.614Z,24.60
2019-01-11T10:18:21.076Z,22.90
2019-01-11T10:20:49.114Z,23.00
2019-01-11T10:23:15.655Z,23.60
2019-01-11T10:25:42.120Z,24.50
2019-01-11T10:28:09.682Z,22.27
2019-01-11T10:30:36.104Z,22.73
2019-01-11T10:33:02.981Z,23.10
2019-01-11T10:35:29.483Z,23.90
2019-01-11T10:37:55.919Z,25.53
2019-01-11T10:40:22.457Z,25.37
2019-01-11T10:42:49.192Z,22.53
2019-01-11T10:45:18.366Z,23.17
2019-01-11T10:47:44.938Z,25.20
2019-01-11T10:50:14.263Z,23.87
2019-01-11T10:52:40.888Z,26.50
2019-01-11T10:55:09.693Z,24.47
2019-01-11T10:57:36.188Z,24.50
2019-01-11T11:00:06.913Z,24.80
2019-01-11T11:02:33.423Z,24.87
2019-01-11T11:05:00.490Z,23.33
2019-01-11T11:07:26.922Z,24.37
2019-01-11T11:09:53.357Z,25.70
2019-01-11T11:12:19.839Z,22.90
2019-01-11T11:14:46.449Z,23.10
2019-01-11T11:17:12.986Z,21.67
2019-01-11T11:19:40.425Z,22.00
2019-01-11T11:22:07.127Z,23.70
2019-01-11T11:24:33.650Z,23.40
2019-01-11T11:27:00.218Z,23.77
2019-01-11T11:29:26.701Z,23.37
2019-01-11T11:31:53.282Z,22.77
2019-01-11T11:34:23.804Z,22.77
2019-01-11T11:36:50.304Z,24.00
2019-01-11T11:39:16.823Z,23.63
2019-01-11T11:41:43.424Z,23.97
2019-01-11T11:44:09.879Z,22.87
2019-01-11T11:46:36.314Z,23.40
2019-01-11T11:49:02.856Z,22.70
2019-01-11T11:51:29.296Z,23.03
2019-01-11T11:53:55.713Z,23.10
2019-01-11T11:56:22.192Z,23.47
2019-01-11T11:58:48.778Z,21.63
2019-01-11T12:01:15.245Z,20.57
2019-01-11T12:03:41.643Z,21.37
2019-01-11T12:06:08.410Z,23.07
2019-01-11T12:08:34.816Z,19.33
2019-01-11T12:11:01.368Z,21.30
2019-01-11T12:13:28.827Z,20.80
2019-01-11T12:15:55.252Z,20.40
2019-01-11T12:18:21.748Z,20.83
2019-01-11T12:20:48.322Z,20.87
2019-01-11T12:23:14.775Z,19.57
2019-01-11T12:25:41.281Z,19.90
2019-01-11T12:28:07.807Z,19.13
2019-01-11T12:30:34.306Z,21.30
2019-01-11T12:33:01.113Z,20.97
2019-01-11T12:35:27.548Z,23.10
2019-01-11T12:37:54.092Z,21.40
2019-01-11T12:40:20.566Z,21.57
2019-01-11T12:42:47.059Z,23.73
2019-01-11T12:45:14.564Z,20.97
2019-01-11T12:47:41.182Z,23.70
2019-01-11T12:50:16.703Z,26.83
2019-01-11T12:52:43.272Z,19.87
2019-01-11T12:55:09.649Z,21.40
2019-01-11T12:57:36.217Z,22.07
2019-01-11T13:00:06.037Z,21.40
2019-01-11T13:02:32.398Z,20.27
2019-01-11T13:04:59.108Z,22.53
2019-01-11T13:07:25.701Z,24.47
2019-01-11T13:09:52.227Z,24.17
2019-01-11T13:12:19.037Z,24.90
2019-01-11T13:14:45.442Z,25.50
2019-01-11T13:17:11.871Z,25.03
2019-01-11T13:19:38.297Z,22.20
2019-01-11T13:22:05.046Z,21.53
2019-01-11T13:24:31.467Z,22.77
2019-01-11T13:26:57.904Z,21.57
2019-01-11T13:29:24.393Z,21.20
2019-01-11T13:31:51.147Z,21.33
2019-01-11T13:34:17.687Z,18.90
2019-01-11T13:36:44.131Z,18.17
2019-01-11T13:39:11.195Z,17.00
2019-01-11T13:41:37.726Z,17.20
2019-01-11T13:44:04.383Z,16.40
2019-01-11T13:46:30.803Z,14.67
2019-01-11T13:48:57.251Z,14.20
2019-01-11T13:51:23.979Z,14.73
2019-01-11T13:53:50.608Z,12.67
2019-01-11T13:56:17.077Z,12.57
2019-01-11T13:58:43.735Z,11.57
2019-01-11T14:01:10.233Z,11.57
2019-01-11T14:03:36.774Z,11.90
2019-01-11T14:06:03.431Z,10.73
2019-01-11T14:08:29.873Z,10.90
2019-01-11T14:10:56.371Z,11.27
2019-01-11T14:13:22.858Z,11.13
2019-01-11T14:15:49.252Z,10.87
2019-01-11T14:18:15.682Z,10.93
2019-01-11T14:20:42.228Z,11.23
2019-01-11T14:23:08.669Z,9.10
2019-01-11T14:25:35.285Z,10.93
2019-01-11T14:28:01.928Z,9.10
2019-01-11T14:30:28.562Z,9.53
2019-01-11T14:32:55.013Z,8.83
2019-01-11T14:35:21.412Z,8.47
2019-01-11T14:37:47.862Z,8.77
2019-01-11T14:40:15.437Z,8.67
2019-01-11T14:42:43.102Z,8.80
2019-01-11T14:45:11.845Z,8.40
2019-01-11T14:47:38.287Z,8.27
2019-01-11T14:50:08.414Z,8.33
2019-01-11T14:52:34.862Z,9.33
2019-01-11T14:55:01.287Z,8.80
2019-01-11T14:57:27.831Z,9.10
2019-01-11T14:59:54.502Z,9.63
2019-01-11T15:02:21.014Z,9.60
2019-01-11T15:04:47.444Z,9.50
2019-01-11T15:07:13.998Z,8.30
2019-01-11T15:09:40.773Z,9.23
2019-01-11T15:12:07.360Z,9.60
2019-01-11T15:14:33.910Z,10.30
2019-01-11T15:17:00.313Z,9.67
2019-01-11T15:19:26.882Z,9.43
2019-01-11T15:21:53.399Z,9.30
2019-01-11T15:24:20.089Z,8.90
2019-01-11T15:26:46.585Z,9.50
2019-01-11T15:29:12.982Z,10.07
2019-01-11T15:31:39.429Z,10.00
2019-01-11T15:34:06.893Z,9.87
2019-01-11T15:36:33.444Z,10.10
2019-01-11T15:38:59.858Z,8.97
2019-01-11T15:41:26.265Z,9.83
2019-01-11T15:43:52.843Z,9.97
2019-01-11T15:46:20.160Z,9.10
2019-01-11T15:48:47.154Z,9.00
2019-01-11T15:51:16.008Z,10.60
2019-01-11T15:53:42.440Z,9.17
2019-01-11T15:56:09.083Z,9.83
2019-01-11T15:58:35.783Z,9.93
2019-01-11T16:01:02.653Z,9.93
2019-01-11T16:03:29.049Z,9.10
2019-01-11T16:06:16.641Z,9.00
2019-01-11T16:09:15.703Z,9.87
2019-01-11T16:11:57.422Z,9.53
2019-01-11T16:14:54.865Z,9.47
2019-01-11T16:17:27.948Z,9.43
2019-01-11T16:19:54.399Z,9.30
2019-01-11T16:22:20.873Z,9.83
2019-01-11T16:24:47.386Z,9.80
2019-01-11T16:27:14.123Z,10.20
2019-01-11T16:29:40.548Z,9.17
2019-01-11T16:32:07.296Z,10.20
2019-01-11T16:34:33.707Z,8.80
2019-01-11T16:37:00.138Z,11.43
2019-01-11T16:39:26.808Z,10.23
2019-01-11T16:41:53.226Z,10.67
2019-01-11T16:44:19.666Z,9.00
2019-01-11T16:46:46.109Z,9.80
2019-01-11T16:49:12.584Z,10.47
2019-01-11T16:51:39.334Z,9.40
2019-01-11T16:54:05.823Z,9.23
2019-01-11T16:56:34.265Z,11.00
2019-01-11T16:59:00.723Z,9.40
2019-01-11T17:01:27.123Z,9.97
2019-01-11T17:03:53.513Z,9.77
2019-01-11T17:06:20.330Z,9.00
2019-01-11T17:08:46.877Z,10.30
2019-01-11T17:11:13.677Z,9.80
2019-01-11T17:13:40.684Z,9.00
2019-01-11T17:16:07.564Z,9.90
2019-01-11T17:18:34.094Z,8.47
2019-01-11T17:21:00.654Z,9.20
2019-01-11T17:23:27.134Z,8.67
2019-01-11T17:25:53.530Z,9.63
2019-01-11T17:28:19.980Z,9.77
2019-01-11T17:30:47.461Z,9.63
2019-01-11T17:33:14.225Z,9.93
2019-01-11T17:35:40.713Z,10.23
2019-01-11T17:38:07.240Z,9.57
2019-01-11T17:40:33.890Z,10.37
2019-01-11T17:43:00.291Z,10.63
2019-01-11T17:45:26.758Z,10.10
2019-01-11T17:47:53.236Z,9.77
2019-01-11T17:50:19.722Z,9.20
2019-01-11T17:52:47.273Z,9.97
2019-01-11T17:55:13.903Z,9.20
2019-01-11T17:57:40.843Z,10.33
2019-01-11T18:00:10.278Z,9.93
2019-01-11T18:02:36.743Z,10.30
2019-01-11T18:05:05.316Z,10.40
2019-01-11T18:07:31.782Z,10.67
2019-01-11T18:09:58.245Z,9.70
2019-01-11T18:12:25.040Z,9.77
2019-01-11T18:14:51.533Z,9.60
2019-01-11T18:17:18.058Z,10.37
2019-01-11T18:19:44.493Z,9.93
2019-01-11T18:22:10.938Z,10.57
2019-01-11T18:24:37.354Z,9.60
2019-01-11T18:27:03.861Z,10.40
2019-01-11T18:29:30.438Z,10.57
2019-01-11T18:31:58.214Z,10.20
2019-01-11T18:34:26.217Z,11.20
2019-01-11T18:36:53.632Z,10.20
2019-01-11T18:39:20.241Z,11.47
2019-01-11T18:41:48.936Z,10.37
2019-01-11T18:44:15.977Z,10.10
2019-01-11T18:46:43.453Z,9.90
2019-01-11T18:49:10.980Z,10.37
2019-01-11T18:51:37.764Z,10.87
2019-01-11T18:54:04.364Z,10.80
2019-01-11T18:56:30.797Z,11.43
2019-01-11T18:58:57.251Z,10.43
2019-01-11T19:01:23.673Z,10.60
2019-01-11T19:03:50.007Z,12.60
2019-01-11T19:06:16.557Z,10.83
2019-01-11T19:08:43.252Z,10.27
2019-01-11T19:11:09.914Z,10.47
2019-01-11T19:13:36.440Z,10.23
2019-01-11T19:16:03.010Z,11.13
2019-01-11T19:18:29.434Z,12.20
2019-01-11T19:20:55.891Z,12.10
2019-01-11T19:23:22.416Z,9.97
2019-01-11T19:25:48.850Z,11.23
2019-01-11T19:28:15.272Z,11.30
2019-01-11T19:30:41.801Z,10.77
2019-01-11T19:33:08.278Z,10.83
2019-01-11T19:35:34.885Z,12.03
2019-01-11T19:38:01.356Z,11.10
2019-01-11T19:40:27.848Z,11.37
2019-01-11T19:42:54.275Z,11.63
2019-01-11T19:45:20.897Z,12.30
2019-01-11T19:47:47.394Z,12.53
2019-01-11T19:50:19.667Z,11.37
2019-01-11T19:52:47.016Z,10.40
2019-01-11T19:55:13.824Z,11.03
2019-01-11T19:57:40.280Z,12.33
2019-01-11T20:00:18.743Z,12.50
2019-01-11T20:02:45.532Z,11.63
2019-01-11T20:05:12.221Z,11.70
2019-01-11T20:07:39.144Z,11.70
2019-01-11T20:10:15.160Z,13.03
2019-01-11T20:12:41.699Z,12.30
2019-01-11T20:15:08.811Z,12.23
2019-01-11T20:17:35.275Z,12.40
2019-01-11T20:20:06.546Z,10.50
2019-01-11T20:22:33.762Z,11.80
2019-01-11T20:25:02.979Z,11.97
2019-01-11T20:27:29.427Z,12.30
2019-01-11T20:29:56.079Z,10.90
2019-01-11T20:32:22.641Z,12.80
2019-01-11T20:34:49.124Z,12.60
2019-01-11T20:37:19.052Z,11.87
2019-01-11T20:39:45.628Z,11.50
2019-01-11T20:42:12.104Z,11.43
2019-01-11T20:44:38.815Z,11.67
2019-01-11T20:47:05.255Z,12.37
2019-01-11T20:49:31.971Z,11.30
2019-01-11T20:51:58.571Z,11.23
2019-01-11T20:54:25.003Z,12.97
2019-01-11T20:56:51.439Z,12.73
2019-01-11T20:59:17.828Z,12.60
2019-01-11T21:01:44.292Z,12.70
2019-01-11T21:04:10.865Z,12.40
2019-01-11T21:06:37.342Z,11.70
2019-01-11T21:09:05.802Z,13.40
2019-01-11T21:11:32.264Z,12.53
2019-01-11T21:13:58.809Z,12.20
2019-01-11T21:16:25.494Z,11.90
2019-01-11T21:18:51.983Z,13.40
2019-01-11T21:21:18.762Z,12.23
2019-01-11T21:23:48.964Z,13.57
2019-01-11T21:26:13.492Z,11.27
2019-01-11T21:28:39.953Z,11.80
2019-01-11T21:31:06.448Z,12.63
2019-01-11T21:33:34.983Z,12.60
2019-01-11T21:36:01.422Z,12.03
2019-01-11T21:38:27.891Z,12.90
2019-01-11T21:40:54.388Z,13.20
2019-01-11T21:43:20.854Z,12.27
2019-01-11T21:45:47.319Z,12.10
2019-01-11T21:48:13.777Z,12.70
2019-01-11T21:50:40.219Z,10.50
2019-01-11T21:53:06.735Z,12.60
2019-01-11T21:55:33.203Z,12.70
2019-01-11T21:57:59.683Z,12.90
2019-01-11T22:00:31.913Z,14.17
2019-01-11T22:02:58.300Z,14.43
2019-01-11T22:05:24.693Z,13.80
2019-01-11T22:07:51.147Z,12.87
2019-01-11T22:10:17.545Z,12.90
2019-01-11T22:12:43.975Z,13.63
2019-01-11T22:15:13.610Z,13.93
2019-01-11T22:17:40.045Z,12.60
2019-01-11T22:20:09.848Z,13.63
2019-01-11T22:22:36.336Z,13.33
2019-01-11T22:25:04.835Z,13.23
2019-01-11T22:27:31.219Z,13.40
2019-01-11T22:29:57.637Z,13.10
2019-01-11T22:32:24.182Z,11.80
2019-01-11T22:34:50.579Z,11.83
2019-01-11T22:37:17.053Z,14.93
2019-01-11T22:39:43.410Z,15.10
2019-01-11T22:42:10.027Z,14.03
2019-01-11T22:44:36.417Z,12.63
2019-01-11T22:47:03.091Z,13.70
2019-01-11T22:49:29.620Z,13.50
2019-01-11T22:51:56.015Z,13.13
2019-01-11T22:54:22.697Z,14.07
2019-01-11T22:56:49.337Z,14.60
2019-01-11T22:59:15.758Z,12.53
2019-01-11T23:01:45.932Z,14.10
2019-01-11T23:04:12.334Z,13.10
2019-01-11T23:06:42.551Z,14.90
2019-01-11T23:09:10.862Z,14.90
2019-01-11T23:11:52.878Z,13.33
2019-01-11T23:14:19.246Z,13.30
2019-01-11T23:16:45.959Z,14.27
2019-01-11T23:19:12.365Z,12.87
2019-01-11T23:21:38.747Z,12.20
2019-01-11T23:24:05.619Z,12.50
2019-01-11T23:26:32.089Z,14.20
2019-01-11T23:28:58.529Z,14.30
2019-01-11T23:31:27.235Z,13.17
2019-01-11T23:33:53.648Z,13.20
2019-01-11T23:36:20.108Z,13.37
2019-01-11T23:38:50.047Z,14.90
2019-01-11T23:41:16.538Z,14.67
2019-01-11T23:43:42.923Z,13.97
2019-01-11T23:46:09.461Z,14.00
2019-01-11T23:48:35.915Z,13.07
2019-01-11T23:51:02.507Z,12.37
2019-01-11T23:53:28.908Z,12.50
2019-01-11T23:55:56.374Z,12.83
2019-01-11T23:58:22.808Z,12.60
